Terminal Aerodrome Forecast
Issued by NWS

Home | Current Version | Previous Version | Text Only | Print | Product List | Glossary On
Versions: 1 2 3 4 5 6 7 8 9 10 11 12 13 14 15 16 17 18
801
FTUS43 KAPX 301738
TAFTVC
TAF
KTVC 301738Z 3018/0118 07008KT P6SM BKN250
     FM010200 07007KT P6SM OVC100
     FM010700 05005KT P6SM VCSH OVC060
     FM011500 04010KT P6SM VCSH OVC035=

USA.gov is the U.S. government's official web portal to all federal, state and local government web resources and services.